createdAt,value
2018-03-08T00:01:24.302Z,99.90
2018-03-08T00:03:51.870Z,99.90
2018-03-08T00:06:19.450Z,99.90
2018-03-08T00:08:47.007Z,99.90
2018-03-08T00:11:14.560Z,99.90
2018-03-08T00:13:42.215Z,99.90
2018-03-08T00:16:09.750Z,99.90
2018-03-08T00:18:37.310Z,99.90
2018-03-08T00:21:05.620Z,99.90
2018-03-08T00:23:33.158Z,99.90
2018-03-08T00:26:00.708Z,99.90
2018-03-08T00:28:29.121Z,99.90
2018-03-08T00:30:56.673Z,99.90
2018-03-08T00:33:24.314Z,99.90
2018-03-08T00:35:51.923Z,99.90
2018-03-08T00:38:19.573Z,99.90
2018-03-08T00:40:47.144Z,99.90
2018-03-08T00:43:14.697Z,99.90
2018-03-08T00:45:42.241Z,99.90
2018-03-08T00:48:09.798Z,99.90
2018-03-08T00:50:37.354Z,99.90
2018-03-08T00:53:04.893Z,99.90
2018-03-08T00:55:32.499Z,99.90
2018-03-08T00:58:00.159Z,99.90
2018-03-08T01:00:27.711Z,99.90
2018-03-08T01:02:55.265Z,99.90
2018-03-08T01:05:22.805Z,99.90
2018-03-08T01:07:50.351Z,99.90
2018-03-08T01:10:18.673Z,99.90
2018-03-08T01:12:46.223Z,99.90
2018-03-08T01:15:14.544Z,99.90
2018-03-08T01:17:42.187Z,99.90
2018-03-08T01:20:09.870Z,99.90
2018-03-08T01:22:37.418Z,99.90
2018-03-08T01:25:04.975Z,99.90
2018-03-08T01:27:32.515Z,99.90
2018-03-08T01:30:00.066Z,99.90
2018-03-08T01:32:27.733Z,99.90
2018-03-08T01:34:55.260Z,99.90
2018-03-08T01:37:22.814Z,99.90
2018-03-08T01:39:51.138Z,99.90
2018-03-08T01:42:18.691Z,99.90
2018-03-08T01:44:46.242Z,99.90
2018-03-08T01:47:13.811Z,99.90
2018-03-08T01:49:41.353Z,99.90
2018-03-08T01:52:11.753Z,99.90
2018-03-08T01:54:40.072Z,99.90
2018-03-08T01:57:07.627Z,99.90
2018-03-08T01:59:35.761Z,99.90
2018-03-08T02:02:04.198Z,99.90
2018-03-08T02:04:31.755Z,99.90
2018-03-08T02:06:59.312Z,99.90
2018-03-08T02:09:27.002Z,99.90
2018-03-08T02:11:54.558Z,99.90
2018-03-08T02:14:22.200Z,99.90
2018-03-08T02:16:49.760Z,99.90
2018-03-08T02:19:17.319Z,99.90
2018-03-08T02:21:44.847Z,99.90
2018-03-08T02:24:12.408Z,99.90
2018-03-08T02:26:39.953Z,99.90
2018-03-08T02:29:07.565Z,99.90
2018-03-08T02:31:36.130Z,99.90
2018-03-08T02:34:03.676Z,99.90
2018-03-08T02:36:31.223Z,99.90
2018-03-08T02:38:58.839Z,99.90
2018-03-08T02:41:26.492Z,99.90
2018-03-08T02:43:54.044Z,99.90
2018-03-08T02:46:21.612Z,99.90
2018-03-08T02:48:49.157Z,99.90
2018-03-08T02:51:16.723Z,99.90
2018-03-08T02:53:44.291Z,99.90
2018-03-08T02:56:11.848Z,99.90
2018-03-08T02:58:39.404Z,99.90
2018-03-08T03:01:06.970Z,99.90
2018-03-08T03:03:34.507Z,99.90
2018-03-08T03:06:02.845Z,99.90
2018-03-08T03:08:31.297Z,99.90
2018-03-08T03:10:58.947Z,99.90
2018-03-08T03:13:26.477Z,99.90
2018-03-08T03:15:54.060Z,99.90
2018-03-08T03:18:21.625Z,99.90
2018-03-08T03:20:49.181Z,99.90
2018-03-08T03:23:16.733Z,99.90
2018-03-08T03:25:44.283Z,99.90
2018-03-08T03:28:11.845Z,99.90
2018-03-08T03:30:39.403Z,99.90
2018-03-08T03:33:06.979Z,99.90
2018-03-08T03:35:34.520Z,99.90
2018-03-08T03:38:02.116Z,99.90
2018-03-08T03:40:29.765Z,99.90
2018-03-08T03:42:57.303Z,99.90
2018-03-08T03:45:24.881Z,99.90
2018-03-08T03:47:52.422Z,99.90
2018-03-08T03:50:19.965Z,99.90
2018-03-08T03:52:48.288Z,99.90
2018-03-08T03:55:15.832Z,99.90
2018-03-08T03:57:43.382Z,99.90
2018-03-08T04:00:10.955Z,99.90
2018-03-08T04:02:38.548Z,99.90
2018-03-08T04:05:06.093Z,99.90
2018-03-08T04:07:33.648Z,99.90
2018-03-08T04:10:01.196Z,99.90
2018-03-08T04:12:28.766Z,99.90
2018-03-08T04:14:56.336Z,99.90
2018-03-08T04:17:23.991Z,99.90
2018-03-08T04:19:51.552Z,99.90
2018-03-08T04:22:19.116Z,99.90
2018-03-08T04:24:46.769Z,99.90
2018-03-08T04:27:14.330Z,99.90
2018-03-08T04:29:41.996Z,99.90
2018-03-08T04:32:10.190Z,99.90
2018-03-08T04:34:37.768Z,99.90
2018-03-08T04:37:06.100Z,99.90
2018-03-08T04:39:33.650Z,99.90
2018-03-08T04:42:01.227Z,99.90
2018-03-08T04:44:28.788Z,99.90
2018-03-08T04:46:56.332Z,99.90
2018-03-08T04:49:23.870Z,99.90
2018-03-08T04:51:51.482Z,99.90
2018-03-08T04:54:19.055Z,99.90
2018-03-08T04:56:46.604Z,99.90
2018-03-08T04:59:14.156Z,99.90
2018-03-08T05:01:41.696Z,99.90
2018-03-08T05:04:09.284Z,99.90
2018-03-08T05:06:36.879Z,99.90
2018-03-08T05:09:05.202Z,99.90
2018-03-08T05:11:32.753Z,99.90
2018-03-08T05:14:00.331Z,99.90
2018-03-08T05:16:27.894Z,99.90
2018-03-08T05:18:55.558Z,99.90
2018-03-08T05:21:23.116Z,99.90
2018-03-08T05:23:50.656Z,99.90
2018-03-08T05:26:18.243Z,99.90
2018-03-08T05:28:45.903Z,99.90
2018-03-08T05:31:13.560Z,99.90
2018-03-08T05:33:41.103Z,99.90
2018-03-08T05:36:08.658Z,99.90
2018-03-08T05:38:36.206Z,99.90
2018-03-08T05:41:03.746Z,99.90
2018-03-08T05:43:32.070Z,99.90
2018-03-08T05:45:59.633Z,99.90
2018-03-08T05:48:27.156Z,99.90
2018-03-08T05:50:54.731Z,99.90
2018-03-08T05:53:22.294Z,99.90
2018-03-08T05:55:49.881Z,99.90
2018-03-08T05:58:17.459Z,99.90
2018-03-08T06:00:45.088Z,99.90
2018-03-08T06:03:12.658Z,99.90
2018-03-08T06:05:40.227Z,99.90
2018-03-08T06:08:07.773Z,99.90
2018-03-08T06:10:35.311Z,99.90
2018-03-08T06:13:02.866Z,99.90
2018-03-08T06:15:30.425Z,99.90
2018-03-08T06:17:57.967Z,99.90
2018-03-08T06:20:26.304Z,99.90
2018-03-08T06:22:53.960Z,99.90
2018-03-08T06:25:21.629Z,99.90
2018-03-08T06:27:49.200Z,99.90
2018-03-08T06:30:16.753Z,99.90
2018-03-08T06:32:44.400Z,99.90
2018-03-08T06:35:11.970Z,99.90
2018-03-08T06:37:39.618Z,99.90
2018-03-08T06:40:07.171Z,99.90
2018-03-08T06:42:34.744Z,99.90
2018-03-08T06:45:02.282Z,99.90
2018-03-08T06:47:29.834Z,99.90
2018-03-08T06:49:57.391Z,99.90
2018-03-08T06:52:24.979Z,99.90
2018-03-08T06:54:52.519Z,99.90
2018-03-08T06:57:20.115Z,99.90
2018-03-08T06:59:48.416Z,99.90
2018-03-08T07:02:16.741Z,99.90
2018-03-08T07:04:44.300Z,99.90
2018-03-08T07:07:11.884Z,99.90
2018-03-08T07:09:39.439Z,99.90
2018-03-08T07:12:07.099Z,99.90
2018-03-08T07:14:34.663Z,99.90
2018-03-08T07:17:02.217Z,99.90
2018-03-08T07:19:29.781Z,99.90
2018-03-08T07:21:57.321Z,99.90
2018-03-08T07:24:24.851Z,99.90
2018-03-08T07:26:53.178Z,99.90
2018-03-08T07:29:20.718Z,99.90
2018-03-08T07:31:48.280Z,99.90
2018-03-08T07:34:15.847Z,99.90
2018-03-08T07:36:43.398Z,99.90
2018-03-08T07:39:10.981Z,99.90
2018-03-08T07:41:38.641Z,99.90
2018-03-08T07:44:06.189Z,99.90
2018-03-08T07:46:33.751Z,99.90
2018-03-08T07:49:01.315Z,99.90
2018-03-08T07:51:28.885Z,99.90
2018-03-08T07:53:56.421Z,99.90
2018-03-08T07:56:23.982Z,99.90
2018-03-08T07:58:51.522Z,99.90
2018-03-08T08:01:19.075Z,99.90
2018-03-08T08:03:47.406Z,99.90
2018-03-08T08:06:26.943Z,99.90
2018-03-08T08:09:01.201Z,99.90
2018-03-08T08:11:29.502Z,99.90
2018-03-08T08:13:57.049Z,99.90
2018-03-08T08:16:25.369Z,99.90
2018-03-08T08:18:52.902Z,99.90
2018-03-08T08:21:20.505Z,99.90
2018-03-08T08:23:48.066Z,99.90
2018-03-08T08:26:15.618Z,99.90
2018-03-08T08:28:43.286Z,99.90
2018-03-08T08:31:10.938Z,99.90
2018-03-08T08:33:38.473Z,99.90
2018-03-08T08:36:06.022Z,99.90
2018-03-08T08:38:33.588Z,99.90
2018-03-08T08:41:01.128Z,99.90
2018-03-08T08:43:29.485Z,99.90
2018-03-08T08:45:57.042Z,99.90
2018-03-08T08:48:24.589Z,99.90
2018-03-08T08:50:52.321Z,99.90
2018-03-08T08:53:19.869Z,99.90
2018-03-08T08:55:47.411Z,99.90
2018-03-08T08:58:15.733Z,99.90
2018-03-08T09:00:43.295Z,99.90
2018-03-08T09:03:10.842Z,99.90
2018-03-08T09:05:38.415Z,99.90
2018-03-08T09:08:05.977Z,99.90
2018-03-08T09:10:33.523Z,99.90
2018-03-08T09:13:01.105Z,99.90
2018-03-08T09:15:28.750Z,99.90
2018-03-08T09:17:56.285Z,99.90
2018-03-08T09:20:23.829Z,99.90
2018-03-08T09:22:52.147Z,99.90
2018-03-08T09:25:19.692Z,99.90
2018-03-08T09:27:47.229Z,99.90
2018-03-08T09:30:15.652Z,99.90
2018-03-08T09:32:43.193Z,99.90
2018-03-08T09:35:11.414Z,99.90
2018-03-08T09:37:39.070Z,99.90
2018-03-08T09:40:08.111Z,99.90
2018-03-08T09:42:35.702Z,99.90
2018-03-08T09:45:03.264Z,99.90
2018-03-08T09:47:30.805Z,99.90
2018-03-08T09:49:58.347Z,99.90
2018-03-08T09:52:25.942Z,99.90
2018-03-08T09:54:53.481Z,99.90
2018-03-08T09:57:21.023Z,99.90
2018-03-08T09:59:48.625Z,99.90
2018-03-08T10:02:16.170Z,99.90
2018-03-08T10:04:43.720Z,99.90
2018-03-08T10:07:11.311Z,99.90
2018-03-08T10:09:38.861Z,99.90
2018-03-08T10:12:06.403Z,99.90
2018-03-08T10:14:33.966Z,99.90
2018-03-08T10:17:01.525Z,99.90
2018-03-08T10:19:29.066Z,99.90
2018-03-08T10:21:56.633Z,99.90
2018-03-08T10:24:24.172Z,99.90
2018-03-08T10:26:52.506Z,99.90
2018-03-08T10:29:20.172Z,99.90
2018-03-08T10:31:47.712Z,99.90
2018-03-08T10:34:15.326Z,99.90
2018-03-08T10:36:43.680Z,99.90
2018-03-08T10:44:07.364Z,99.90
2018-03-08T10:46:34.905Z,99.90
2018-03-08T10:49:02.516Z,99.90
2018-03-08T10:51:30.030Z,99.90
2018-03-08T10:53:57.583Z,99.90
2018-03-08T10:56:25.124Z,99.90
2018-03-08T10:58:53.441Z,99.90
2018-03-08T11:01:25.807Z,99.90
2018-03-08T11:03:55.295Z,99.90
2018-03-08T11:06:28.657Z,99.90
2018-03-08T11:08:57.008Z,99.90
2018-03-08T11:11:24.563Z,99.90
2018-03-08T11:13:52.114Z,99.90
2018-03-08T11:16:20.449Z,99.90
2018-03-08T11:18:48.770Z,99.90
2018-03-08T11:21:16.340Z,99.90
2018-03-08T11:23:43.998Z,99.90
2018-03-08T11:26:11.560Z,99.90
2018-03-08T11:28:39.106Z,99.90
2018-03-08T11:31:06.664Z,99.90
2018-03-08T11:33:34.215Z,99.90
2018-03-08T11:36:01.755Z,99.90
2018-03-08T11:38:30.068Z,99.90
2018-03-08T11:40:57.647Z,99.90
2018-03-08T11:43:25.196Z,99.90
2018-03-08T11:45:52.857Z,99.90
2018-03-08T11:48:20.386Z,99.90
2018-03-08T11:50:47.985Z,99.90
2018-03-08T11:53:15.653Z,99.90
2018-03-08T11:55:43.208Z,99.90
2018-03-08T11:58:10.750Z,99.90
2018-03-08T12:00:38.321Z,99.90
2018-03-08T12:03:05.862Z,99.90
2018-03-08T12:05:33.410Z,99.90
2018-03-08T12:08:00.968Z,99.90
2018-03-08T12:10:28.515Z,99.90
2018-03-08T12:12:56.836Z,99.90
2018-03-08T12:15:24.396Z,99.90
2018-03-08T12:17:51.982Z,99.90
2018-03-08T12:20:19.625Z,99.90
2018-03-08T12:22:47.187Z,99.90
2018-03-08T12:25:14.730Z,99.90
2018-03-08T12:27:43.609Z,99.90
2018-03-08T12:30:11.187Z,99.90
2018-03-08T12:32:38.723Z,99.90
2018-03-08T12:35:06.311Z,99.90
2018-03-08T12:37:33.871Z,99.90
2018-03-08T12:40:01.410Z,99.90
2018-03-08T12:42:28.957Z,99.90
2018-03-08T12:44:56.507Z,99.90
2018-03-08T12:47:24.108Z,99.90
2018-03-08T12:49:51.676Z,99.90
2018-03-08T12:52:19.238Z,99.90
2018-03-08T12:54:46.903Z,99.90
2018-03-08T12:57:14.495Z,99.90
2018-03-08T12:59:42.025Z,99.90
2018-03-08T13:02:09.676Z,99.90
2018-03-08T13:04:37.242Z,99.90
2018-03-08T13:07:04.902Z,99.90
2018-03-08T13:09:32.453Z,99.90
2018-03-08T13:12:00.021Z,99.90
2018-03-08T13:14:27.577Z,99.90
2018-03-08T13:16:55.143Z,99.90
2018-03-08T13:19:22.812Z,99.90
2018-03-08T13:21:50.368Z,99.90
2018-03-08T13:24:18.017Z,99.90
2018-03-08T13:26:45.569Z,99.90
2018-03-08T13:29:13.124Z,99.90
2018-03-08T13:31:40.665Z,99.90
2018-03-08T13:34:08.259Z,99.90
2018-03-08T13:36:35.820Z,99.90
2018-03-08T13:39:03.364Z,99.90
2018-03-08T13:41:30.944Z,99.90
2018-03-08T13:43:58.504Z,99.90
2018-03-08T13:46:26.045Z,99.90
2018-03-08T13:48:53.601Z,99.90
2018-03-08T13:51:21.173Z,99.90
2018-03-08T13:53:48.729Z,99.90
2018-03-08T13:56:16.272Z,99.90
2018-03-08T13:58:43.827Z,99.90
2018-03-08T14:01:11.370Z,99.90
2018-03-08T14:03:39.672Z,99.90
2018-03-08T14:06:07.230Z,99.90
2018-03-08T14:08:34.802Z,99.90
2018-03-08T14:11:02.323Z,99.90
2018-03-08T14:13:30.649Z,99.90
2018-03-08T14:15:58.204Z,99.90
2018-03-08T14:18:25.772Z,99.90
2018-03-08T14:20:53.320Z,99.90
2018-03-08T14:23:20.885Z,99.90
2018-03-08T14:25:48.469Z,99.90
2018-03-08T14:28:16.020Z,99.90
2018-03-08T14:30:43.564Z,99.90
2018-03-08T14:33:11.115Z,99.90
2018-03-08T14:35:38.689Z,99.90
2018-03-08T14:38:06.270Z,99.90
2018-03-08T14:40:34.580Z,99.90
2018-03-08T14:43:02.911Z,99.90
2018-03-08T14:45:30.476Z,99.90
2018-03-08T14:47:58.008Z,99.90
2018-03-08T14:50:25.566Z,99.90
2018-03-08T14:52:53.115Z,99.90
2018-03-08T14:55:21.449Z,99.90
2018-03-08T14:57:48.985Z,99.90
2018-03-08T15:00:16.549Z,98.50
2018-03-08T15:02:44.096Z,99.90
2018-03-08T15:05:11.691Z,99.90
2018-03-08T15:07:39.244Z,96.80
2018-03-08T15:10:06.811Z,98.50
2018-03-08T15:12:34.481Z,96.80
2018-03-08T15:15:02.114Z,92.10
2018-03-08T15:17:29.684Z,99.40
2018-03-08T15:19:57.239Z,99.90
2018-03-08T15:22:24.786Z,92.30
2018-03-08T15:24:52.357Z,90.10
2018-03-08T15:27:19.926Z,96.50
2018-03-08T15:29:47.580Z,87.30
2018-03-08T15:32:15.117Z,93.70
2018-03-08T15:34:42.682Z,93.20
2018-03-08T15:37:10.256Z,91.80
2018-03-08T15:39:37.814Z,94.20
2018-03-08T15:42:05.485Z,88.10
2018-03-08T15:44:33.020Z,94.80
2018-03-08T15:47:00.547Z,94.30
2018-03-08T15:49:28.968Z,97.60
2018-03-08T15:51:56.543Z,97.50
2018-03-08T15:54:24.084Z,95.70
2018-03-08T15:56:51.644Z,96.30
2018-03-08T15:59:19.184Z,93.40
2018-03-08T16:01:46.758Z,99.50
2018-03-08T16:04:14.315Z,99.20
2018-03-08T16:07:08.958Z,91.80
2018-03-08T16:10:12.579Z,93.30
2018-03-08T16:12:40.885Z,92.80
2018-03-08T16:15:08.427Z,92.60
2018-03-08T16:17:36.757Z,93.90
2018-03-08T16:20:04.309Z,93.50
2018-03-08T16:22:31.848Z,93.20
2018-03-08T16:24:59.419Z,92.50
2018-03-08T16:27:26.970Z,95.10
2018-03-08T16:29:54.522Z,91.80
2018-03-08T16:32:22.213Z,89.90
2018-03-08T16:34:49.749Z,91.40
2018-03-08T16:37:17.335Z,91.20
2018-03-08T16:39:45.005Z,79.30
2018-03-08T16:42:12.548Z,70.80
2018-03-08T16:44:40.121Z,70.70
2018-03-08T16:47:07.678Z,67.50
2018-03-08T16:49:35.228Z,65.10
2018-03-08T16:52:02.802Z,65.60
2018-03-08T16:54:30.465Z,68.60
2018-03-08T16:56:58.014Z,67.00
2018-03-08T16:59:25.556Z,66.70
2018-03-08T17:01:53.139Z,66.10
2018-03-08T17:04:20.673Z,71.10
2018-03-08T17:06:48.218Z,69.90
2018-03-08T17:09:15.854Z,65.20
2018-03-08T17:11:43.355Z,65.40
2018-03-08T17:14:10.888Z,67.30
2018-03-08T17:16:39.335Z,67.20
2018-03-08T17:19:06.881Z,67.00
2018-03-08T17:21:34.416Z,66.20
2018-03-08T17:24:01.987Z,65.10
2018-03-08T17:26:29.528Z,65.50
2018-03-08T17:28:57.169Z,67.00
2018-03-08T17:31:24.697Z,66.20
2018-03-08T17:33:52.230Z,66.90
2018-03-08T17:36:19.791Z,67.30
2018-03-08T17:38:47.353Z,67.80
2018-03-08T17:41:14.905Z,67.00
2018-03-08T17:43:42.476Z,66.20
2018-03-08T17:46:10.151Z,67.40
2018-03-08T17:48:37.802Z,67.60
2018-03-08T17:51:05.352Z,65.90
2018-03-08T17:53:32.903Z,66.90
2018-03-08T17:56:00.441Z,67.10
2018-03-08T17:58:28.746Z,68.60
2018-03-08T18:00:56.321Z,68.60
2018-03-08T18:03:23.864Z,69.50
2018-03-08T18:05:51.452Z,69.20
2018-03-08T18:08:18.990Z,70.30
2018-03-08T18:10:46.534Z,67.90
2018-03-08T18:13:14.091Z,70.40
2018-03-08T18:15:41.634Z,67.50
2018-03-08T18:18:09.975Z,69.10
2018-03-08T18:20:37.507Z,69.10
2018-03-08T18:23:05.097Z,68.90
2018-03-08T18:25:32.628Z,69.20
2018-03-08T18:28:00.180Z,70.80
2018-03-08T18:30:27.774Z,68.90
2018-03-08T18:32:55.326Z,70.90
2018-03-08T18:35:22.854Z,71.90
2018-03-08T18:37:50.415Z,71.50
2018-03-08T18:40:17.990Z,73.40
2018-03-08T18:42:45.543Z,74.80
2018-03-08T18:45:13.112Z,76.60
2018-03-08T18:47:40.660Z,75.20
2018-03-08T18:50:08.204Z,75.40
2018-03-08T18:52:35.802Z,73.60
2018-03-08T18:55:03.377Z,75.00
2018-03-08T18:57:31.018Z,74.50
2018-03-08T18:59:58.538Z,75.20
2018-03-08T19:02:26.870Z,77.50
2018-03-08T19:04:54.416Z,77.20
2018-03-08T19:07:22.851Z,77.20
2018-03-08T19:09:51.200Z,80.90
2018-03-08T19:12:18.744Z,80.80
2018-03-08T19:14:46.300Z,78.40
2018-03-08T19:17:13.901Z,77.30
2018-03-08T19:19:42.222Z,78.60
2018-03-08T19:22:09.805Z,77.80
2018-03-08T19:24:37.359Z,79.20
2018-03-08T19:27:04.902Z,80.30
2018-03-08T19:29:32.472Z,79.10
2018-03-08T19:32:00.031Z,80.10
2018-03-08T19:34:27.592Z,80.10
2018-03-08T19:36:55.143Z,80.30
2018-03-08T19:39:22.685Z,81.80
2018-03-08T19:41:50.243Z,81.30
2018-03-08T19:44:17.848Z,82.30
2018-03-08T19:46:45.399Z,83.70
2018-03-08T19:49:12.963Z,81.50
2018-03-08T19:51:40.527Z,84.70
2018-03-08T19:54:08.066Z,85.60
2018-03-08T19:56:35.633Z,85.00
2018-03-08T19:59:03.182Z,84.80
2018-03-08T20:01:30.740Z,85.40
2018-03-08T20:03:58.289Z,85.60
2018-03-08T20:06:27.653Z,86.00
2018-03-08T20:08:55.200Z,87.60
2018-03-08T20:11:22.839Z,86.80
2018-03-08T20:13:50.407Z,86.90
2018-03-08T20:16:17.944Z,87.50
2018-03-08T20:18:45.496Z,86.50
2018-03-08T20:21:13.055Z,87.00
2018-03-08T20:23:40.607Z,88.20
2018-03-08T20:26:08.213Z,88.50
2018-03-08T20:28:35.907Z,88.60
2018-03-08T20:31:03.485Z,89.40
2018-03-08T20:38:07.771Z,91.20
2018-03-08T20:40:35.315Z,91.20
2018-03-08T20:43:02.855Z,91.40
2018-03-08T20:45:31.196Z,93.60
2018-03-08T20:47:59.502Z,93.50
2018-03-08T20:50:27.822Z,94.80
2018-03-08T20:52:55.408Z,94.90
2018-03-08T20:55:23.002Z,94.20
2018-03-08T20:57:50.627Z,94.90
2018-03-08T21:00:18.180Z,94.10
2018-03-08T21:02:45.728Z,96.10
2018-03-08T21:05:13.274Z,95.60
2018-03-08T21:07:40.864Z,97.90
2018-03-08T21:10:08.401Z,97.60
2018-03-08T21:12:35.948Z,97.60
2018-03-08T21:15:03.503Z,97.40
2018-03-08T21:17:31.052Z,99.00
2018-03-08T21:19:59.374Z,98.80
2018-03-08T21:22:27.048Z,98.60
2018-03-08T21:24:54.592Z,99.40
2018-03-08T21:27:22.134Z,99.90
2018-03-08T21:29:49.699Z,99.70
2018-03-08T21:32:17.252Z,99.60
2018-03-08T21:34:44.802Z,99.90
2018-03-08T21:37:12.374Z,99.90
2018-03-08T21:39:39.914Z,99.90
2018-03-08T21:42:07.535Z,99.90
2018-03-08T21:44:35.100Z,99.90
2018-03-08T21:47:02.644Z,99.90
2018-03-08T21:49:30.881Z,99.90
2018-03-08T21:51:58.474Z,99.90
2018-03-08T21:54:26.791Z,99.90
2018-03-08T21:56:55.108Z,99.90
2018-03-08T21:59:22.680Z,99.90
2018-03-08T22:01:50.238Z,99.90
2018-03-08T22:04:17.778Z,99.90
2018-03-08T22:06:45.350Z,99.90
2018-03-08T22:09:12.936Z,99.90
2018-03-08T22:11:40.482Z,99.90
2018-03-08T22:14:08.036Z,99.90
2018-03-08T22:16:35.586Z,99.90
2018-03-08T22:19:03.149Z,99.90
2018-03-08T22:21:30.714Z,99.90
2018-03-08T22:23:58.255Z,99.90
2018-03-08T22:26:25.793Z,99.90
2018-03-08T22:28:54.132Z,99.90
2018-03-08T22:31:21.679Z,99.90
2018-03-08T22:33:49.212Z,99.90
2018-03-08T22:36:16.778Z,99.90
2018-03-08T22:38:44.323Z,99.90
2018-03-08T22:41:11.866Z,99.90
2018-03-08T22:43:40.171Z,99.90
2018-03-08T22:46:07.725Z,99.90
2018-03-08T22:48:36.167Z,99.90
2018-03-08T22:51:03.727Z,99.90
2018-03-08T22:53:31.380Z,99.90
2018-03-08T22:55:58.920Z,99.90
2018-03-08T22:58:27.387Z,99.90
2018-03-08T23:00:54.924Z,99.90
2018-03-08T23:03:28.032Z,99.90
2018-03-08T23:05:55.628Z,99.90
2018-03-08T23:08:23.146Z,99.90
2018-03-08T23:10:50.726Z,99.90
2018-03-08T23:13:18.288Z,99.90
2018-03-08T23:15:45.822Z,99.90
2018-03-08T23:18:13.382Z,99.90
2018-03-08T23:20:40.971Z,99.90
2018-03-08T23:23:08.513Z,99.90
2018-03-08T23:25:36.099Z,99.90
2018-03-08T23:28:03.636Z,99.90
2018-03-08T23:30:31.184Z,99.90
2018-03-08T23:32:58.791Z,99.90
2018-03-08T23:35:26.345Z,99.90
2018-03-08T23:37:54.002Z,99.90
2018-03-08T23:40:21.557Z,99.90
2018-03-08T23:42:49.102Z,99.90
2018-03-08T23:45:16.660Z,99.90
2018-03-08T23:47:44.225Z,99.90
2018-03-08T23:50:11.817Z,99.90
2018-03-08T23:52:39.480Z,99.90
2018-03-08T23:55:07.130Z,99.90
2018-03-08T23:57:34.650Z,99.90
